Time;durP1;ratioP1;P1;durP2;ratioP2;P2;SDS_P1;SDS_P2;PMS_P1;PMS_P2;Temp;Humidity;BMP_temperature;BMP_pressure;BME280_temperature;BME280_humidity;BME280_pressure;Samples;Min_cycle;Max_cycle;Signal;HPM_P1;HPM_P2
2021/08/05 00:01:31;;;;;;;;;;;;;;;20.91;77.46;98858.65;1892701;76;20100;-58
2021/08/05 00:04:06;;;;;;;;;;;;;;;20.95;77.47;98867.30;1892750;76;20097;-59
2021/08/05 00:06:40;;;;;;;;;;;;;;;21.05;77.22;98857.36;1873422;76;20213;-58
2021/08/05 00:09:15;;;;;;;;;;;;;;;20.96;77.54;98859.39;1873403;76;20101;-58
2021/08/05 00:12:09;;;;;;;;;;;;;;;20.81;78.06;98850.25;1873374;76;20208;-58
2021/08/05 00:15:05;;;;;;;;;;;;;;;20.81;78.19;98851.98;1873099;76;20106;-59
2021/08/05 00:17:41;;;;;;;;;;;;;;;20.77;78.33;98843.84;1873258;76;20093;-58
2021/08/05 00:20:34;;;;;;;;;;;;;;;20.73;78.62;98846.14;1873404;76;20200;-59
2021/08/05 00:23:11;;;;;;;;;;;;;;;20.89;78.10;98847.38;1873288;76;20168;-60
2021/08/05 00:25:47;;;;;;;;;;;;;;;20.79;78.25;98846.81;1873453;76;20101;-60
2021/08/05 00:28:22;;;;;;;;;;;;;;;20.75;78.64;98848.27;1892714;76;20112;-59
2021/08/05 00:30:57;;;;;;;;;;;;;;;20.72;78.61;98837.88;1892826;76;20334;-59
2021/08/05 00:33:33;;;;;;;;;;;;;;;20.70;78.88;98837.06;1873267;76;20295;-59
2021/08/05 00:36:09;;;;;;;;;;;;;;;20.68;78.93;98827.92;1873366;76;20094;-61
2021/08/05 00:39:03;;;;;;;;;;;;;;;20.77;78.58;98830.27;1892715;76;20203;-59
2021/08/05 00:41:39;;;;;;;;;;;;;;;20.83;78.29;98831.82;1873202;76;20351;-58
2021/08/05 00:44:14;;;;;;;;;;;;;;;20.91;78.16;98827.17;1873452;76;20098;-59
2021/08/05 00:46:48;;;;;;;;;;;;;;;20.91;77.95;98824.55;1892723;76;20097;-60
2021/08/05 00:49:23;;;;;;;;;;;;;;;20.94;77.79;98827.09;1873315;76;20101;-60
2021/08/05 00:51:59;;;;;;;;;;;;;;;20.99;77.56;98824.33;1873258;76;20093;-60
2021/08/05 00:54:35;;;;;;;;;;;;;;;20.85;77.90;98814.73;1892706;76;20093;-59
2021/08/05 00:57:10;;;;;;;;;;;;;;;20.81;78.18;98825.76;1892728;76;20382;-59
2021/08/05 01:00:05;;;;;;;;;;;;;;;20.64;78.59;98817.61;1883469;75;20132;-59
2021/08/05 01:03:12;;;;;;;;;;;;;;;20.63;78.56;98818.50;1892768;76;20413;-59
2021/08/05 01:06:28;;;;;;;;;;;;;;;20.76;78.17;98812.83;1837863;77;20100;-61
2021/08/05 01:09:12;;;;;;;;;;;;;;;20.84;77.61;98820.44;1892839;76;20457;-60
2021/08/05 01:12:11;;;;;;;;;;;;;;;20.83;77.33;98823.10;1873435;76;20355;-59
2021/08/05 01:15:04;;;;;;;;;;;;;;;20.80;77.33;98817.50;1892727;76;20208;-58
2021/08/05 01:18:01;;;;;;;;;;;;;;;20.84;77.06;98807.75;1873378;76;20204;-59
2021/08/05 01:20:37;;;;;;;;;;;;;;;21.10;76.12;98818.70;1873426;76;20205;-61
2021/08/05 01:23:22;;;;;;;;;;;;;;;21.37;74.46;98815.12;1873336;76;20163;-59
2021/08/05 01:26:00;;;;;;;;;;;;;;;21.51;73.79;98813.80;1892731;76;20450;-59
2021/08/05 01:28:36;;;;;;;;;;;;;;;21.68;72.90;98812.73;1873541;76;20098;-58
2021/08/05 01:31:13;;;;;;;;;;;;;;;21.82;72.10;98810.44;1873279;76;20097;-59
2021/08/05 01:34:13;;;;;;;;;;;;;;;21.85;71.71;98810.35;1892610;76;20211;-61
2021/08/05 01:37:08;;;;;;;;;;;;;;;21.77;71.60;98804.50;1873201;76;20201;-59
2021/08/05 01:39:46;;;;;;;;;;;;;;;21.56;71.35;98807.93;1869912;76;20208;-59
2021/08/05 01:42:22;;;;;;;;;;;;;;;21.33;72.58;98810.88;1873266;76;20105;-59
2021/08/05 01:45:05;;;;;;;;;;;;;;;21.09;73.25;98811.30;1892698;76;20093;-58
2021/08/05 01:48:00;;;;;;;;;;;;;;;21.01;73.64;98802.80;1892742;76;20092;-59
2021/08/05 01:50:36;;;;;;;;;;;;;;;20.90;73.62;98805.80;1892731;76;20144;-61
2021/08/05 01:53:16;;;;;;;;;;;;;;;20.76;74.22;98805.38;1873245;76;20101;-58
2021/08/05 01:55:50;;;;;;;;;;;;;;;20.72;74.55;98811.20;1837826;77;20215;-58
2021/08/05 01:58:35;;;;;;;;;;;;;;;20.72;74.71;98812.97;1889849;76;20128;-59
2021/08/05 02:01:12;;;;;;;;;;;;;;;20.76;74.67;98806.70;1873424;76;20212;-59
2021/08/05 02:03:52;;;;;;;;;;;;;;;20.74;74.86;98800.67;1873277;76;20358;-60
2021/08/05 02:06:25;;;;;;;;;;;;;;;20.58;75.44;98793.73;1892691;76;20453;-59
2021/08/05 02:09:09;;;;;;;;;;;;;;;20.54;75.78;98798.23;1873430;76;20097;-57
2021/08/05 02:12:03;;;;;;;;;;;;;;;20.60;75.77;98798.02;1873377;76;20454;-58
2021/08/05 02:14:38;;;;;;;;;;;;;;;20.71;75.54;98796.81;1892703;76;20212;-59
2021/08/05 02:17:15;;;;;;;;;;;;;;;20.66;75.79;98794.37;1873125;76;20129;-59
2021/08/05 02:20:10;;;;;;;;;;;;;;;20.59;76.19;98791.08;1892686;76;20101;-60
2021/08/05 02:23:04;;;;;;;;;;;;;;;20.67;76.10;98796.06;1892626;76;20105;-58
2021/08/05 02:25:41;;;;;;;;;;;;;;;20.62;76.25;98801.06;1873160;76;20094;-57
2021/08/05 02:28:17;;;;;;;;;;;;;;;20.73;75.94;98789.30;1863273;76;20108;-60
2021/08/05 02:31:13;;;;;;;;;;;;;;;21.04;74.97;98790.91;1854814;76;20120;-59
2021/08/05 02:33:49;;;;;;;;;;;;;;;21.15;74.47;98794.47;1862208;76;20196;-56
2021/08/05 02:36:44;;;;;;;;;;;;;;;21.13;74.43;98791.04;1872686;76;20359;-58
2021/08/05 02:39:20;;;;;;;;;;;;;;;21.24;74.15;98792.82;1871793;76;20173;-62
2021/08/05 02:41:56;;;;;;;;;;;;;;;21.26;74.08;98796.25;1882577;76;20177;-63
2021/08/05 02:44:57;;;;;;;;;;;;;;;21.23;74.19;98797.68;1872624;76;20355;-62
2021/08/05 02:47:32;;;;;;;;;;;;;;;21.28;74.13;98797.06;1873314;76;20097;-60
2021/08/05 02:50:46;;;;;;;;;;;;;;;21.36;73.90;98788.91;1876868;75;20239;-60
2021/08/05 02:53:32;;;;;;;;;;;;;;;21.40;73.89;98794.04;1867446;76;20223;-62
2021/08/05 02:56:09;;;;;;;;;;;;;;;21.42;73.93;98786.97;1873179;76;20097;-61
2021/08/05 02:58:45;;;;;;;;;;;;;;;21.45;73.91;98784.23;1868218;76;20370;-61
2021/08/05 03:01:27;;;;;;;;;;;;;;;21.56;73.67;98782.52;1892936;76;20113;-61
2021/08/05 03:04:36;;;;;;;;;;;;;;;21.62;73.38;98785.37;1871951;76;20101;-61
2021/08/05 03:07:28;;;;;;;;;;;;;;;21.71;73.11;98775.00;1873386;76;20093;-62
2021/08/05 03:10:21;;;;;;;;;;;;;;;21.73;72.95;98779.28;1873526;76;20098;-59
2021/08/05 03:13:15;;;;;;;;;;;;;;;21.77;72.83;98779.55;1873443;76;20208;-61
2021/08/05 03:15:50;;;;;;;;;;;;;;;21.74;72.86;98784.92;1873345;76;20355;-63
2021/08/05 03:18:25;;;;;;;;;;;;;;;21.68;73.08;98778.59;1873396;76;20101;-60
2021/08/05 03:21:00;;;;;;;;;;;;;;;21.72;73.12;98781.95;1873235;76;20101;-60
2021/08/05 03:23:36;;;;;;;;;;;;;;;21.74;73.07;98782.30;1873343;76;20094;-62
2021/08/05 03:26:11;;;;;;;;;;;;;;;21.85;72.92;98779.25;1873423;76;20094;-60
2021/08/05 03:29:11;;;;;;;;;;;;;;;21.99;72.47;98781.37;1872399;76;20098;-60
2021/08/05 03:31:46;;;;;;;;;;;;;;;22.07;72.12;98782.78;1873339;76;20097;-61
2021/08/05 03:34:22;;;;;;;;;;;;;;;22.16;71.66;98771.06;1873434;76;20097;-60
2021/08/05 03:36:57;;;;;;;;;;;;;;;22.24;71.37;98774.28;1873437;76;20192;-61
2021/08/05 03:39:32;;;;;;;;;;;;;;;22.22;71.33;98772.16;1873387;76;20098;-60
2021/08/05 03:42:08;;;;;;;;;;;;;;;22.15;71.48;98774.59;1873508;76;20093;-62
2021/08/05 03:45:05;;;;;;;;;;;;;;;22.16;71.53;98771.50;1873276;76;20101;-62
2021/08/05 03:47:59;;;;;;;;;;;;;;;22.08;71.74;98770.48;1873214;76;20098;-61
2021/08/05 03:50:35;;;;;;;;;;;;;;;22.15;71.57;98767.17;1873175;76;20098;-62
2021/08/05 03:53:10;;;;;;;;;;;;;;;22.24;71.29;98766.39;1873342;76;20097;-61
2021/08/05 03:55:46;;;;;;;;;;;;;;;22.26;71.14;98775.51;1892701;76;20362;-62
2021/08/05 03:58:20;;;;;;;;;;;;;;;22.35;70.89;98774.30;1873438;76;20097;-61
2021/08/05 04:00:56;;;;;;;;;;;;;;;22.39;70.67;98775.88;1873325;76;20098;-61
2021/08/05 04:03:31;;;;;;;;;;;;;;;22.46;70.45;98778.66;1873357;76;20097;-62
2021/08/05 04:06:07;;;;;;;;;;;;;;;22.43;70.50;98777.48;1873455;76;20102;-60
2021/08/05 04:08:42;;;;;;;;;;;;;;;22.47;70.49;98781.70;1873519;76;20213;-61
2021/08/05 04:11:17;;;;;;;;;;;;;;;22.46;70.47;98774.25;1873636;76;20093;-64
2021/08/05 04:13:52;;;;;;;;;;;;;;;22.50;70.34;98773.22;1873248;76;20351;-62
2021/08/05 04:16:47;;;;;;;;;;;;;;;22.60;69.93;98778.97;1873315;76;20101;-60
2021/08/05 04:19:26;;;;;;;;;;;;;;;22.69;69.61;98777.72;1892809;76;20096;-61
2021/08/05 04:22:20;;;;;;;;;;;;;;;22.80;69.04;98779.93;1873123;76;20101;-62
2021/08/05 04:24:55;;;;;;;;;;;;;;;;;;1873279;76;20148;-61
2021/08/05 04:27:30;;;;;;;;;;;;;;;;;;1873231;76;20102;-62
2021/08/05 04:30:08;;;;;;;;;;;;;;;22.88;68.54;98780.45;1892731;76;20100;-62
2021/08/05 04:32:41;;;;;;;;;;;;;;;22.87;68.51;98771.71;1873647;76;20098;-64
2021/08/05 04:35:18;;;;;;;;;;;;;;;22.87;68.35;98779.61;1892867;76;20093;-62
2021/08/05 04:38:14;;;;;;;;;;;;;;;22.89;68.32;98772.94;1892678;76;20096;-66
2021/08/05 04:41:08;;;;;;;;;;;;;;;22.93;68.33;98771.91;1878793;75;20236;-62
2021/08/05 04:43:52;;;;;;;;;;;;;;;22.98;68.22;98774.37;1873353;76;20208;-61
2021/08/05 04:46:49;;;;;;;;;;;;;;;23.10;67.81;98765.50;1878852;75;20494;-61
2021/08/05 04:49:24;;;;;;;;;;;;;;;23.25;67.37;98772.31;1873349;76;20093;-61
2021/08/05 04:52:18;;;;;;;;;;;;;;;23.41;66.95;98764.14;1873386;76;20363;-62
2021/08/05 04:54:52;;;;;;;;;;;;;;;23.49;66.59;98765.97;1873480;76;20212;-62
2021/08/05 04:57:27;;;;;;;;;;;;;;;23.63;66.07;98766.64;1892640;76;20215;-61
2021/08/05 05:00:01;;;;;;;;;;;;;;;23.80;65.50;98765.92;1892724;76;20096;-62
2021/08/05 05:02:36;;;;;;;;;;;;;;;23.93;65.38;98769.69;1873403;76;20177;-63
2021/08/05 05:05:10;;;;;;;;;;;;;;;24.01;65.02;98766.22;1873511;76;20462;-61
2021/08/05 05:07:45;;;;;;;;;;;;;;;24.08;64.86;98762.84;1873409;76;20172;-62
2021/08/05 05:10:24;;;;;;;;;;;;;;;24.04;64.90;98761.27;1873379;76;20098;-62
2021/08/05 05:13:18;;;;;;;;;;;;;;;24.06;64.87;98766.01;1873366;76;20216;-62
2021/08/05 05:16:11;;;;;;;;;;;;;;;24.13;64.51;98765.27;1873320;76;20356;-62
2021/08/05 05:18:47;;;;;;;;;;;;;;;24.17;64.31;98761.09;1873146;76;20097;-61
2021/08/05 05:21:22;;;;;;;;;;;;;;;24.17;64.07;98765.05;1873295;76;20098;-63
2021/08/05 05:24:16;;;;;;;;;;;;;;;24.17;64.13;98772.97;1873251;76;20204;-61
2021/08/05 05:26:50;;;;;;;;;;;;;;;24.18;64.08;98769.86;1873378;76;20454;-63
2021/08/05 05:29:25;;;;;;;;;;;;;;;24.28;63.90;98775.08;1873340;76;20258;-62
2021/08/05 05:32:01;;;;;;;;;;;;;;;24.34;63.57;98769.50;1892604;76;20100;-60
2021/08/05 05:34:56;;;;;;;;;;;;;;;24.47;63.33;98779.90;1868823;75;20240;-63
2021/08/05 05:37:39;;;;;;;;;;;;;;;24.54;63.02;98775.16;1892694;76;20212;-62
2021/08/05 05:40:34;;;;;;;;;;;;;;;24.59;62.97;98778.89;1873405;76;20355;-64
2021/08/05 05:43:28;;;;;;;;;;;;;;;24.68;62.97;98791.65;1892625;76;20211;-61
2021/08/05 05:46:03;;;;;;;;;;;;;;;24.79;62.61;98788.00;1873260;76;20205;-63
2021/08/05 05:48:39;;;;;;;;;;;;;;;24.98;62.76;98793.66;1873247;76;20147;-62
2021/08/05 05:51:13;;;;;;;;;;;;;;;25.16;62.41;98795.39;1873384;76;20098;-62
2021/08/05 05:53:48;;;;;;;;;;;;;;;25.38;61.74;98792.50;1873333;76;20097;-62
2021/08/05 05:56:23;;;;;;;;;;;;;;;25.64;60.88;98783.19;1873393;76;20098;-63
2021/08/05 05:58:58;;;;;;;;;;;;;;;25.91;59.94;98776.06;1873268;76;20097;-60
2021/08/05 06:01:35;;;;;;;;;;;;;;;26.28;58.84;98784.58;1873476;76;20098;-62
2021/08/05 06:04:29;;;;;;;;;;;;;;;26.95;57.09;98785.19;1892606;76;20097;-61
2021/08/05 06:07:10;;;;;;;;;;;;;;;27.57;55.60;98792.96;1892511;76;20120;-64
2021/08/05 06:09:45;;;;;;;;;;;;;;;28.22;53.99;98797.29;1873343;76;20098;-62
2021/08/05 06:12:19;;;;;;;;;;;;;;;28.76;52.29;98789.34;1873519;76;20212;-63
2021/08/05 06:14:53;;;;;;;;;;;;;;;29.15;50.92;98792.95;1873431;76;20097;-61
2021/08/05 06:17:29;;;;;;;;;;;;;;;29.39;50.08;98792.23;1892697;76;20092;-64
2021/08/05 06:20:06;;;;;;;;;;;;;;;29.75;49.12;98784.00;1873178;76;20355;-61
2021/08/05 06:22:42;;;;;;;;;;;;;;;30.51;47.92;98786.94;1873320;76;20212;-62
2021/08/05 06:25:17;;;;;;;;;;;;;;;31.68;45.41;98787.42;1873371;76;20184;-62
2021/08/05 06:27:53;;;;;;;;;;;;;;;32.60;43.04;98802.23;1892660;76;20100;-63
2021/08/05 06:30:27;;;;;;;;;;;;;;;33.10;41.91;98796.81;1873401;76;20097;-63
2021/08/05 06:33:04;;;;;;;;;;;;;;;33.58;40.67;98797.63;1873136;76;20094;-62
2021/08/05 06:35:38;;;;;;;;;;;;;;;33.93;39.70;98802.56;1892658;76;20097;-62
2021/08/05 06:38:32;;;;;;;;;;;;;;;34.49;38.44;98803.36;1892618;76;20208;-62
2021/08/05 06:41:07;;;;;;;;;;;;;;;34.89;37.87;98805.10;1873401;76;20094;-64
2021/08/05 06:43:47;;;;;;;;;;;;;;;35.01;37.31;98803.13;1892660;76;20254;-61
2021/08/05 06:46:25;;;;;;;;;;;;;;;35.06;37.11;98810.25;1873249;76;20098;-63
2021/08/05 06:49:19;;;;;;;;;;;;;;;35.56;36.25;98814.04;1873188;76;20212;-62
2021/08/05 06:51:54;;;;;;;;;;;;;;;36.47;34.90;98819.59;1873381;76;20208;-62
2021/08/05 06:54:29;;;;;;;;;;;;;;;37.11;33.75;98820.91;1873216;76;20355;-61
2021/08/05 06:57:04;;;;;;;;;;;;;;;37.10;33.47;98821.92;1873444;76;20212;-63
2021/08/05 06:59:38;;;;;;;;;;;;;;;36.88;33.65;98815.98;1892639;76;20097;-61
2021/08/05 07:02:13;;;;;;;;;;;;;;;36.45;34.13;98814.86;1873375;76;20208;-63
2021/08/05 07:04:48;;;;;;;;;;;;;;;36.26;34.42;98803.75;1873234;76;20098;-64
2021/08/05 07:07:24;;;;;;;;;;;;;;;36.24;34.50;98804.39;1873049;76;20216;-61
2021/08/05 07:10:03;;;;;;;;;;;;;;;35.70;34.84;98798.01;1949594;73;20096;-60
2021/08/05 07:12:39;;;;;;;;;;;;;;;34.71;35.90;98798.27;1892668;76;20461;-62
2021/08/05 07:15:14;;;;;;;;;;;;;;;33.59;38.04;98800.67;1892696;76;20211;-61
2021/08/05 07:17:49;;;;;;;;;;;;;;;32.93;39.37;98788.38;1873348;76;20098;-63
2021/08/05 07:20:24;;;;;;;;;;;;;;;32.91;39.14;98782.80;1892681;76;20096;-63
2021/08/05 07:23:17;;;;;;;;;;;;;;;33.16;39.08;98781.60;1873274;76;20347;-62
2021/08/05 07:25:58;;;;;;;;;;;;;;;33.46;38.63;98779.45;1872546;76;20216;-61
2021/08/05 07:28:32;;;;;;;;;;;;;;;33.75;38.03;98766.72;1873373;76;20101;-60
2021/08/05 07:31:08;;;;;;;;;;;;;;;34.26;36.15;98769.77;1892666;76;20343;-63
2021/08/05 07:33:48;;;;;;;;;;;;;;;34.19;36.13;98776.66;1892678;76;20097;-63
2021/08/05 07:36:22;;;;;;;;;;;;;;;33.55;37.26;98771.98;1873452;76;20101;-61
2021/08/05 07:38:57;;;;;;;;;;;;;;;33.39;37.83;98760.40;1873388;76;20212;-64
2021/08/05 07:41:33;;;;;;;;;;;;;;;33.89;37.51;98760.50;1873157;76;20097;-61
2021/08/05 07:44:08;;;;;;;;;;;;;;;35.16;35.69;98760.15;1892786;76;20258;-61
2021/08/05 07:47:02;;;;;;;;;;;;;;;35.72;33.99;98766.96;1873473;76;20216;-62
2021/08/05 07:49:37;;;;;;;;;;;;;;;35.10;35.23;98758.53;1873366;76;20220;-62
2021/08/05 07:52:13;;;;;;;;;;;;;;;34.75;35.79;98757.27;1873101;76;20367;-61
2021/08/05 07:55:10;;;;;;;;;;;;;;;35.56;34.98;98752.30;1873204;76;20101;-62
2021/08/05 07:58:04;;;;;;;;;;;;;;;36.72;33.09;98758.87;1892656;76;20354;-61
2021/08/05 08:00:57;;;;;;;;;;;;;;;35.88;33.51;98761.81;1873306;76;20101;-62
2021/08/05 08:03:32;;;;;;;;;;;;;;;35.16;34.82;98754.78;1873403;76;20212;-63
2021/08/05 08:06:26;;;;;;;;;;;;;;;35.29;35.02;98755.81;1892600;76;20101;-61
2021/08/05 08:09:21;;;;;;;;;;;;;;;35.38;34.83;98746.02;1873409;76;20205;-61
2021/08/05 08:11:56;;;;;;;;;;;;;;;35.00;35.40;98742.41;1873292;76;20097;-62
2021/08/05 08:14:31;;;;;;;;;;;;;;;35.10;35.14;98745.95;1873361;76;20097;-61
2021/08/05 08:17:05;;;;;;;;;;;;;;;36.03;33.85;98743.36;1873365;76;20105;-63
2021/08/05 08:19:39;;;;;;;;;;;;;;;35.72;33.60;98746.32;1873381;76;20098;-62
2021/08/05 08:22:14;;;;;;;;;;;;;;;34.47;35.42;98737.48;1873372;76;20097;-64
2021/08/05 08:24:51;;;;;;;;;;;;;;;33.53;37.37;98730.25;1873367;76;20212;-64
2021/08/05 08:27:27;;;;;;;;;;;;;;;33.38;38.33;98737.31;1873016;76;20098;-65
2021/08/05 08:30:21;;;;;;;;;;;;;;;33.17;38.24;98726.63;1892685;76;20097;-62
2021/08/05 08:32:58;;;;;;;;;;;;;;;32.99;38.57;98732.20;1873220;76;20363;-60
2021/08/05 08:35:54;;;;;;;;;;;;;;;33.20;37.94;98742.44;1873281;76;20168;-61
2021/08/05 08:38:47;;;;;;;;;;;;;;;33.05;38.94;98729.02;1873337;76;20208;-60
2021/08/05 08:41:22;;;;;;;;;;;;;;;33.33;38.18;98732.86;1873361;76;20212;-70
2021/08/05 08:43:57;;;;;;;;;;;;;;;33.61;38.00;98720.61;1873196;76;20339;-62
2021/08/05 08:46:37;;;;;;;;;;;;;;;33.79;37.84;98740.88;1872466;76;20212;-63
2021/08/05 08:49:17;;;;;;;;;;;;;;;33.88;37.89;98738.70;1873444;76;20098;-62
2021/08/05 08:52:08;;;;;;;;;;;;;;;33.80;37.76;98729.18;1873309;76;20459;-62
2021/08/05 08:54:45;;;;;;;;;;;;;;;33.48;38.54;98718.14;1873194;76;20098;-61
2021/08/05 08:57:39;;;;;;;;;;;;;;;33.87;38.08;98726.31;1873364;76;20212;-61
2021/08/05 09:00:14;;;;;;;;;;;;;;;34.43;37.39;98726.22;1892692;76;20096;-61
2021/08/05 09:03:08;;;;;;;;;;;;;;;34.54;36.84;98729.24;1873341;76;20208;-61
2021/08/05 09:06:02;;;;;;;;;;;;;;;34.20;37.24;98717.61;1872772;76;20208;-62
2021/08/05 09:08:56;;;;;;;;;;;;;;;33.69;38.13;98711.91;1871951;76;20165;-63
2021/08/05 09:11:37;;;;;;;;;;;;;;;32.95;39.55;98715.58;1871683;76;20303;-61
2021/08/05 09:14:12;;;;;;;;;;;;;;;32.08;41.47;98694.81;1892696;76;20350;-61
2021/08/05 09:16:47;;;;;;;;;;;;;;;30.84;44.09;98710.33;1873361;76;20208;-62
2021/08/05 09:19:23;;;;;;;;;;;;;;;30.66;44.67;98705.05;1892655;76;20100;-61
2021/08/05 09:22:44;;;;;;;;;;;;;;;30.76;45.10;98716.70;1873401;76;20212;-61
2021/08/05 09:35:51;;;;;;;;;;;;;;;29.41;48.53;98703.89;1898863;75;20100;-63
2021/08/05 09:38:58;;;;;;;;;;;;;;;29.25;48.50;98705.95;1964868;73;20290;-61
2021/08/05 09:42:11;;;;;;;;;;;;;;;29.03;49.25;98693.26;1966938;73;20211;-60
2021/08/05 09:46:01;;;;;;;;;;;;;;;28.97;49.60;98701.18;1895049;76;20492;-63
2021/08/05 09:49:23;;;;;;;;;;;;;;;28.93;49.63;98697.05;1895007;76;20215;-59
2021/08/05 10:03:05;;;;;;;;;;;;;;;29.21;49.77;98692.03;1856471;77;20388;-61
2021/08/05 10:16:25;;;;;;;;;;;;;;;28.76;50.86;98676.47;1863924;76;20099;-65
2021/08/05 10:19:19;;;;;;;;;;;;;;;28.51;51.55;98676.43;1873223;76;20101;-60
2021/08/05 10:22:16;;;;;;;;;;;;;;;28.42;51.89;98670.37;1892791;76;20092;-62
2021/08/05 10:25:12;;;;;;;;;;;;;;;28.48;51.89;98667.36;1892681;76;20455;-60
2021/08/05 10:28:13;;;;;;;;;;;;;;;28.52;51.81;98662.19;1872471;76;20216;-64
2021/08/05 10:31:10;;;;;;;;;;;;;;;28.64;51.31;98668.00;1873323;76;20102;-63
2021/08/05 10:34:05;;;;;;;;;;;;;;;28.45;51.95;98662.26;1873131;76;20101;-63
2021/08/05 10:37:03;;;;;;;;;;;;;;;28.34;52.02;98654.95;1873343;76;20208;-63
2021/08/05 10:39:56;;;;;;;;;;;;;;;28.36;52.12;98657.88;1873344;76;20204;-64
2021/08/05 10:42:52;;;;;;;;;;;;;;;28.34;52.45;98658.48;1873296;76;20347;-62
2021/08/05 10:45:46;;;;;;;;;;;;;;;28.49;52.39;98654.44;1873327;76;20098;-60
2021/08/05 10:48:48;;;;;;;;;;;;;;;28.58;51.98;98647.19;1892584;76;20506;-60
2021/08/05 10:51:42;;;;;;;;;;;;;;;28.48;51.84;98648.77;1873266;76;20208;-61
2021/08/05 10:54:53;;;;;;;;;;;;;;;28.46;51.87;98650.67;1892703;76;20212;-63
2021/08/05 10:58:08;;;;;;;;;;;;;;;28.30;52.39;98642.38;1873427;76;20097;-61
2021/08/05 11:01:04;;;;;;;;;;;;;;;28.38;52.49;98647.66;1873334;76;20208;-60
2021/08/05 11:03:58;;;;;;;;;;;;;;;28.65;51.64;98652.91;1873366;76;20160;-62
2021/08/05 11:06:52;;;;;;;;;;;;;;;28.87;51.40;98650.48;1892650;76;20207;-63
2021/08/05 11:09:54;;;;;;;;;;;;;;;28.82;51.34;98635.34;1872462;76;20102;-63
2021/08/05 11:12:57;;;;;;;;;;;;;;;28.78;51.33;98632.06;1892655;76;20350;-62
2021/08/05 11:15:52;;;;;;;;;;;;;;;28.67;51.61;98626.63;1873296;76;20188;-62
2021/08/05 11:18:47;;;;;;;;;;;;;;;28.69;51.51;98627.38;1873500;76;20442;-61
2021/08/05 11:21:42;;;;;;;;;;;;;;;28.66;51.61;98620.95;1892594;76;20100;-61
2021/08/05 11:24:47;;;;;;;;;;;;;;;28.54;51.43;98618.66;1892603;76;20170;-61
2021/08/05 11:27:46;;;;;;;;;;;;;;;28.43;51.76;98618.52;1892698;76;20203;-61
2021/08/05 11:30:45;;;;;;;;;;;;;;;28.44;51.79;98610.07;1873349;76;20216;-62
2021/08/05 11:33:47;;;;;;;;;;;;;;;28.54;52.26;98615.16;1892751;76;20096;-61
2021/08/05 11:36:45;;;;;;;;;;;;;;;28.46;52.33;98605.55;1873460;76;20212;-61
2021/08/05 11:39:50;;;;;;;;;;;;;;;28.51;52.00;98591.00;1873325;76;20101;-61
2021/08/05 11:42:27;;;;;;;;;;;;;;;28.89;51.15;98598.59;1873257;76;20097;-62
2021/08/05 11:45:21;;;;;;;;;;;;;;;29.17;50.23;98602.34;1873330;76;20101;-61
2021/08/05 11:48:18;;;;;;;;;;;;;;;29.47;49.31;98599.78;1873219;76;20101;-62
2021/08/05 11:50:54;;;;;;;;;;;;;;;29.67;49.24;98587.73;1853424;77;20206;-62
2021/08/05 11:53:48;;;;;;;;;;;;;;;30.02;48.34;98591.77;1873256;76;20102;-63
2021/08/05 11:56:22;;;;;;;;;;;;;;;30.07;47.33;98589.60;1892706;76;20093;-62
2021/08/05 11:59:31;;;;;;;;;;;;;;;29.71;47.88;98587.01;1873337;76;20209;-60
2021/08/05 12:02:25;;;;;;;;;;;;;;;29.51;48.07;98585.28;1873324;76;20204;-61
2021/08/05 12:05:00;;;;;;;;;;;;;;;29.11;48.86;98578.89;1873390;76;20344;-61
2021/08/05 12:07:56;;;;;;;;;;;;;;;28.64;49.64;98569.75;1873198;76;20102;-63
2021/08/05 12:10:32;;;;;;;;;;;;;;;28.43;50.26;98563.26;1892677;76;20207;-62
2021/08/05 12:13:16;;;;;;;;;;;;;;;28.64;51.27;98572.41;1873395;76;20098;-61
2021/08/05 12:16:09;;;;;;;;;;;;;;;28.85;51.21;98569.20;1873319;76;20212;-60
2021/08/05 12:18:44;;;;;;;;;;;;;;;28.81;51.05;98565.09;1892678;76;20097;-62
2021/08/05 12:21:21;;;;;;;;;;;;;;;28.96;50.96;98554.22;1873399;76;20454;-64
2021/08/05 12:23:57;;;;;;;;;;;;;;;29.11;50.36;98557.62;1892674;76;20143;-61
2021/08/05 12:26:36;;;;;;;;;;;;;;;29.28;49.79;98552.89;1892652;76;20366;-62
2021/08/05 12:29:10;;;;;;;;;;;;;;;29.42;48.48;98552.26;1873604;76;20101;-62
2021/08/05 12:31:44;;;;;;;;;;;;;;;29.60;47.14;98547.88;1873694;76;20093;-62
2021/08/05 12:34:19;;;;;;;;;;;;;;;29.57;46.76;98544.97;1873385;76;20098;-60
2021/08/05 12:36:54;;;;;;;;;;;;;;;29.50;46.54;98543.72;1873291;76;20098;-62
2021/08/05 12:39:28;;;;;;;;;;;;;;;29.71;46.34;98557.75;1873359;76;20332;-62
2021/08/05 12:42:04;;;;;;;;;;;;;;;29.70;46.21;98548.09;1892658;76;20096;-62
2021/08/05 12:44:39;;;;;;;;;;;;;;;29.61;46.53;98542.43;1873426;76;20344;-62
2021/08/05 12:47:15;;;;;;;;;;;;;;;29.51;47.07;98544.07;1892723;76;20100;-60
2021/08/05 12:49:50;;;;;;;;;;;;;;;29.25;47.61;98537.17;1892798;76;20093;-61
2021/08/05 12:52:26;;;;;;;;;;;;;;;29.16;47.78;98533.38;1873386;76;20355;-62
2021/08/05 12:55:22;;;;;;;;;;;;;;;29.09;48.12;98537.44;1873555;76;20196;-61
2021/08/05 12:58:02;;;;;;;;;;;;;;;28.94;49.01;98541.52;1892897;76;20335;-61
2021/08/05 13:01:14;;;;;;;;;;;;;;;28.81;49.76;98538.53;1873247;76;20208;-62
2021/08/05 13:03:53;;;;;;;;;;;;;;;28.77;49.75;98532.08;1873358;76;20200;-65
2021/08/05 13:06:53;;;;;;;;;;;;;;;28.64;49.77;98528.59;1873332;76;20451;-64
2021/08/05 13:09:51;;;;;;;;;;;;;;;28.59;49.84;98517.94;1892634;76;20204;-63
2021/08/05 13:12:49;;;;;;;;;;;;;;;28.65;50.04;98507.74;1873395;76;20208;-61
2021/08/05 13:15:44;;;;;;;;;;;;;;;28.97;49.49;98509.90;1873328;76;20102;-62
2021/08/05 13:18:22;;;;;;;;;;;;;;;29.13;48.85;98514.52;1873401;76;20212;-62
2021/08/05 13:21:16;;;;;;;;;;;;;;;29.27;48.56;98496.23;1892606;76;20446;-61
2021/08/05 13:23:51;;;;;;;;;;;;;;;29.41;48.39;98493.41;1873405;76;20458;-62
2021/08/05 13:26:34;;;;;;;;;;;;;;;29.44;48.14;98498.98;1873319;76;20343;-60
2021/08/05 13:29:09;;;;;;;;;;;;;;;29.35;48.38;98490.35;1873276;76;20101;-62
2021/08/05 13:32:09;;;;;;;;;;;;;;;29.18;47.94;98491.58;1892635;76;20150;-63
2021/08/05 13:34:56;;;;;;;;;;;;;;;28.92;48.92;98492.95;1892692;76;20105;-61
2021/08/05 13:37:34;;;;;;;;;;;;;;;28.78;48.61;98491.30;1873286;76;20101;-62
2021/08/05 13:40:11;;;;;;;;;;;;;;;28.83;48.60;98480.36;1892711;76;20100;-60
2021/08/05 13:42:44;;;;;;;;;;;;;;;28.92;47.85;98483.66;1873701;76;20344;-62
2021/08/05 13:45:19;;;;;;;;;;;;;;;29.06;47.83;98477.40;1873378;76;20098;-61
2021/08/05 13:47:55;;;;;;;;;;;;;;;29.05;47.30;98497.39;1892673;76;20096;-61
2021/08/05 13:50:32;;;;;;;;;;;;;;;28.93;47.80;98484.53;1873411;76;20093;-61
2021/08/05 13:53:08;;;;;;;;;;;;;;;28.87;46.35;98484.47;1873392;76;20212;-64
2021/08/05 13:55:43;;;;;;;;;;;;;;;28.81;47.49;98474.78;1873355;76;20098;-63
2021/08/05 13:58:36;;;;;;;;;;;;;;;28.85;47.44;98473.13;1873325;76;20458;-61
2021/08/05 14:01:29;;;;;;;;;;;;;;;28.84;47.15;98475.89;1873429;76;20208;-63
2021/08/05 14:04:05;;;;;;;;;;;;;;;28.74;47.04;98461.09;1892693;76;20093;-62
2021/08/05 14:06:40;;;;;;;;;;;;;;;28.60;47.36;98462.09;1892677;76;20092;-61
2021/08/05 14:09:33;;;;;;;;;;;;;;;28.52;47.20;98458.64;1892540;76;20211;-61
2021/08/05 14:12:27;;;;;;;;;;;;;;;28.53;47.68;98455.50;1873215;76;20208;-60
2021/08/05 14:15:03;;;;;;;;;;;;;;;28.53;47.93;98462.14;1873222;76;20097;-62
2021/08/05 14:17:41;;;;;;;;;;;;;;;28.51;48.16;98459.59;1872718;76;20102;-62
2021/08/05 14:20:37;;;;;;;;;;;;;;;28.41;48.37;98464.30;1892565;76;20101;-61
2021/08/05 14:23:15;;;;;;;;;;;;;;;28.26;48.55;98468.38;1892612;76;20195;-62
2021/08/05 14:25:50;;;;;;;;;;;;;;;28.13;48.76;98474.17;1892683;76;20215;-63
2021/08/05 14:28:25;;;;;;;;;;;;;;;28.01;49.42;98458.64;1872958;76;20461;-62
2021/08/05 14:31:00;;;;;;;;;;;;;;;27.96;49.82;98449.28;1892702;76;20097;-62
2021/08/05 14:33:59;;;;;;;;;;;;;;;27.99;49.69;98442.47;1937532;73;20114;-59
2021/08/05 14:36:55;;;;;;;;;;;;;;;28.01;49.49;98440.53;1873166;76;20101;-62
2021/08/05 14:51:06;;;;;;;;;;;;;;;28.04;48.95;98429.73;1861897;76;20141;-61
2021/08/05 15:09:40;;;;;;;;;;;;;;;27.98;48.19;98434.95;1802916;76;20230;-62
2021/08/05 15:23:12;;;;;;;;;;;;;;;28.30;48.11;98424.77;1904479;74;20329;-60
2021/08/05 15:36:16;;;;;;;;;;;;;;;27.98;49.23;98410.24;1916938;74;20095;-62